Aérodrome :







RETROUVEZ-NOUS SUR...

 
LOGIN :

S'inscrire | Disclaimer

   EN    FR    IT 

 









Légende :    VFR   VFR Marginal   IFR   IFR Intensif   IFR Très Intensif
Visi : 
Plafond : 
>= 8 km
>= 3000ft
5 à 8 km
1000 à 3000 ft
1500m à 5 km
500 à 1000 ft
800 à 1500m
200 à 500 ft
< 800m
< 200 ft
Symboles :   Orages  Brouillard  Fortes neiges  Fortes précipitations  Vent > 20 kt






- Altitude de l'aérodrome : 626 ft


KCAR - Caribou Municipal

DERNIER METAR :
  • 261654Z AUTO 34005KT 10SM CLR 03/M07 A3007 RMK AO2 SLP193 T00281067

METARs EXPIRÉS :
  • 261554Z AUTO 34005KT 10SM CLR 01/M07 A3009 RMK AO2 SLP201 T00111067
  • 261454Z AUTO 31004KT 10SM CLR 00/M07 A3010 RMK AO2 SLP203 T00001067 51013

TAF KCAR
Valide du 26 à 12h jusqu'au 27 à 12h UTC


261122Z 2612/2712 34004KT P6SM FEW090
FM270300 05005KT P6SM BKN030
FM271100 08010G18KT P6SM OVC016



MET'MAP, la Météo Aéronautique d'un coup d'oeil ! - Copyright ORBIFLY Décembre 2007 - Disclaimer

ORBIFLY MET'MAP TEAM :

Programmation & Développement : Alexandra Zaïnal
Sur une idée originale de : Baudouin d'Aumeries
Assistance à la programmation : Marc-Olivier Méhu
Soutien technique & logistique : Manuel Goepfert

Contact : metmap@orbifly.com




SOURCES & CREDITS :

   NOAA